Terminal Aerodrome Forecast
Issued by NWS

Home | Current Version | Previous Version | Text Only | Print | Product List | Glossary On
Versions: 1 2 3 4 5 6 7 8 9 10 11 12 13 14 15 16 17 18
000
FTAK31 PAJN 282300 AAA
TAFAYA
TAF AMD
PAYA 282333Z 2900/2924 15006KT P6SM -SHRA SCT015 BKN050 OVC070
      TEMPO 2900/2904 13008KT 1SM SHRA BR BKN010 BKN025 OVC035
     FM290600 VRB03KT P6SM -SHRA BKN025 OVC050
     FM291200 00000KT 5SM -SHRA BR BKN015 OVC025
     FM291800 13007KT P6SM -SHRA SCT015 BKN025 OVC050
      AMD LTD TO CLD VIS AND WIND 2901/2910=

USA.gov is the U.S. government's official web portal to all federal, state and local government web resources and services.